Ekaterina — 9HAH8 — position and weather

sailwx.info

Track history (hours):
 
Tides and Currents Weather Stations Pressure Air Temp Water Temp Dewpoint Dewpoint Depression Visibility Wind Speed Wind Dir Waves Ship Positions

Ekaterina

Last reported at 2018-Jan-29 21:04 UTC. Time now 2018-Feb-17 21:35 UTC.
Position N 60°26' E 019°02'.
Warning: this ship's position is 19 days out of date.

Length 166 m; draft 6.2 m.

Type: Cargo ship. MMSI: 215776000.

Date/timePositionNaut miles runAvg speedWind from/ knotsBaromVisibWave heightAir tempDewpointWater temp
2018-Jan-29 21:04N 60°26' E 019°02'112.9
2018-Jan-29 21:00N 60°25' E 019°02'713.0
2018-Jan-29 20:30N 60°19' E 019°01'612.7
2018-Jan-29 20:00N 60°13' E 019°04'713.3
2018-Jan-29 19:30N 60°08' E 019°13'713.3
2018-Jan-29 19:00N 60°02' E 019°21'1413.4
2018-Jan-29 17:59N 59°52' E 019°38'22712.0
2018-Jan-28 23:07N 56°21' E 017°00'412.1
2018-Jan-28 22:47N 56°17' E 016°58'312.1
2018-Jan-28 22:30N 56°14' E 016°56'912.0
2018-Jan-28 21:44N 56°05' E 016°50'312.3
2018-Jan-28 21:30N 56°03' E 016°46'613.1
2018-Jan-28 21:00N 56°00' E 016°36'713.1
2018-Jan-28 20:30N 55°57' E 016°26'713.2
2018-Jan-28 20:00N 55°54' E 016°15'713.2
2018-Jan-28 19:30N 55°51' E 016°05'713.1
2018-Jan-28 19:00N 55°47' E 015°55'612.8
2018-Jan-28 18:30N 55°44' E 015°45'612.8
2018-Jan-28 18:00N 55°41' E 015°35'612.9
2018-Jan-28 17:30N 55°38' E 015°25'612.7
2018-Jan-28 17:00N 55°35' E 015°15'612.6
2018-Jan-28 16:30N 55°32' E 015°05'612.7
2018-Jan-28 16:00N 55°29' E 014°56'612.8
2018-Jan-28 15:30N 55°26' E 014°46'612.5
2018-Jan-28 15:00N 55°22' E 014°37'612.3
2018-Jan-28 14:30N 55°17' E 014°30'612.1
2018-Jan-28 14:00N 55°13' E 014°23'612.0
2018-Jan-28 13:29N 55°11' E 014°13'2812.7
2018-Jan-28 11:17N 55°12' E 013°24'412.8
2018-Jan-28 10:59N 55°13' E 013°17'612.8
2018-Jan-28 10:30N 55°13' E 013°07'612.8
2018-Jan-28 10:00N 55°14' E 012°56'712.9
2018-Jan-28 09:30N 55°16' E 012°45'510.9
2018-Jan-28 09:00N 55°20' E 012°38'611.5
2018-Jan-28 08:30N 55°26' E 012°40'510.9
2018-Jan-28 08:01N 55°31' E 012°42'5 9.3
2018-Jan-28 07:31N 55°35' E 012°42'510.0
2018-Jan-28 07:01N 55°40' E 012°41'510.7
2018-Jan-28 06:31N 55°46' E 012°41'510.9
2018-Jan-28 06:01N 55°51' E 012°41'510.8
2018-Jan-28 05:31N 55°57' E 012°39'510.7
2018-Jan-28 05:01N 56°02' E 012°39'510.4
2018-Jan-28 04:30N 56°06' E 012°33'510.3
2018-Jan-28 04:00N 56°09' E 012°26'612.4
2018-Jan-28 03:30N 56°12' E 012°16'57 9.1
2018-Jan-27 21:14N 57°05' E 011°39'2 8.8
2018-Jan-27 21:00N 57°07' E 011°37'5 9.2
2018-Jan-27 20:30N 57°11' E 011°34'5 9.8
2018-Jan-27 20:00N 57°16' E 011°31'510.1
2018-Jan-27 19:30N 57°21' E 011°28'510.3
2018-Jan-27 19:00N 57°26' E 011°26'5 9.9
2018-Jan-27 18:30N 57°29' E 011°20'510.9
2018-Jan-27 18:00N 57°32' E 011°11'611.3
2018-Jan-27 17:30N 57°35' E 011°02'611.4
2018-Jan-27 17:00N 57°37' E 010°52'611.3
2018-Jan-27 16:30N 57°40' E 010°43'4 7.8
2018-Jan-27 16:00N 57°42' E 010°36'0 0.3
2018-Jan-27 15:29N 57°42' E 010°36'0 0.0
2018-Jan-27 14:59N 57°42' E 010°36'0 0.0
2018-Jan-27 14:29N 57°42' E 010°36'0 0.0
2018-Jan-27 13:58N 57°42' E 010°36'0 0.0
2018-Jan-27 13:28N 57°42' E 010°36'0 0.0
2018-Jan-27 12:58N 57°42' E 010°36'0 0.0
2018-Jan-27 12:30N 57°42' E 010°36'0 0.0
2018-Jan-27 12:00N 57°42' E 010°36'0 0.0
2018-Jan-27 11:27N 57°42' E 010°36'0 0.0
2018-Jan-27 10:59N 57°42' E 010°36'0 0.4
2018-Jan-27 10:30N 57°42' E 010°37'3 6.0
2018-Jan-27 10:00N 57°43' E 010°42'4 7.3
2018-Jan-27 09:30N 57°46' E 010°45'510.3
2018-Jan-27 09:00N 57°47' E 010°36'714.0
2018-Jan-27 08:30N 57°45' E 010°23'814.0
2018-Jan-27 07:58N 57°44' E 010°09'40412.7
2018-Jan-26 00:09N 56°13' W 001°52'412.3
2018-Jan-25 23:50N 56°12' W 001°59'412.4
2018-Jan-25 23:31N 56°11' W 002°06'612.6
2018-Jan-25 23:01N 56°10' W 002°17'612.8
2018-Jan-25 22:31N 56°09' W 002°28'713.0
2018-Jan-25 22:00N 56°07' W 002°40'713.2
2018-Jan-25 21:30N 56°06' W 002°51'611.6
2018-Jan-25 21:00N 56°03' W 003°01'5 9.1
2018-Jan-25 20:31N 56°01' W 003°07'2 4.6
2018-Jan-25 20:00N 55°59' W 003°11'0 0.3
2018-Jan-25 19:31N 55°59' W 003°11'0 0.4
2018-Jan-25 19:01N 55°59' W 003°11'0 0.5
2018-Jan-25 18:28N 55°59' W 003°10'0 0.0
2018-Jan-25 18:01N 55°59' W 003°10'0 0.0
2018-Jan-25 17:30N 55°59' W 003°10'0 0.0
2018-Jan-25 17:00N 55°59' W 003°10'0 0.0
2018-Jan-25 16:30N 55°59' W 003°10'0 0.0
2018-Jan-25 15:56N 55°59' W 003°10'0 0.0
2018-Jan-25 15:29N 55°59' W 003°10'0 0.0
2018-Jan-25 15:00N 55°59' W 003°10'0 0.0
2018-Jan-25 14:30N 55°59' W 003°10'0 0.0
2018-Jan-25 13:59N 55°59' W 003°10'0 0.0
2018-Jan-25 13:29N 55°59' W 003°10'0 0.0
2018-Jan-25 12:59N 55°59' W 003°10'0 0.0
2018-Jan-25 12:29N 55°59' W 003°10'0 0.0
2018-Jan-25 11:58N 55°59' W 003°10'0 0.0
2018-Jan-25 11:28N 55°59' W 003°10'0 0.0
2018-Jan-25 10:58N 55°59' W 003°10'0 0.0
2018-Jan-25 10:30N 55°59' W 003°10'0 0.0
2018-Jan-25 10:00N 55°59' W 003°10'0 0.0
2018-Jan-25 09:30N 55°59' W 003°10'0 0.0
2018-Jan-25 08:59N 55°59' W 003°10'0 0.0
2018-Jan-25 08:29N 55°59' W 003°10'0 0.0
2018-Jan-25 07:59N 55°59' W 003°10'0 0.0
2018-Jan-25 07:29N 55°59' W 003°10'0 0.0
2018-Jan-25 06:58N 55°59' W 003°10'0 0.0
2018-Jan-25 06:28N 55°59' W 003°10'0 0.0
2018-Jan-25 05:58N 55°59' W 003°10'0 0.0
2018-Jan-25 05:30N 55°59' W 003°10'0 0.0
2018-Jan-25 05:00N 55°59' W 003°10'0 0.0
2018-Jan-25 04:30N 55°59' W 003°10'0 0.0
2018-Jan-25 03:59N 55°59' W 003°10'0 0.0
2018-Jan-25 03:29N 55°59' W 003°10'0 0.0
2018-Jan-25 02:59N 55°59' W 003°10'0 0.0
2018-Jan-25 02:28N 55°59' W 003°10'0 0.0
2018-Jan-25 01:58N 55°59' W 003°10'0 0.0
2018-Jan-25 01:30N 55°59' W 003°10'0 0.0
2018-Jan-25 01:00N 55°59' W 003°10'0 0.0
2018-Jan-25 00:29N 55°59' W 003°10'0 0.0
2018-Jan-24 23:59N 55°59' W 003°10'0 0.0
2018-Jan-24 23:29N 55°59' W 003°10'0 0.0
2018-Jan-24 22:59N 55°59' W 003°10'0 0.0
2018-Jan-24 22:28N 55°59' W 003°10'0 0.0
2018-Jan-24 21:58N 55°59' W 003°10'0 0.0
2018-Jan-24 21:28N 55°59' W 003°10'0 0.0
2018-Jan-24 21:00N 55°59' W 003°10'0 0.0
2018-Jan-24 20:30N 55°59' W 003°10'0 0.0
2018-Jan-24 20:00N 55°59' W 003°10'0 0.0
2018-Jan-24 19:29N 55°59' W 003°10'0 0.0
2018-Jan-24 18:58N 55°59' W 003°10'0 0.0
2018-Jan-24 18:28N 55°59' W 003°10'0 0.0
2018-Jan-24 17:58N 55°59' W 003°10'0 0.1
2018-Jan-24 17:30N 55°59' W 003°10'0 0.1
2018-Jan-24 17:00N 55°59' W 003°10'0 0.0
2018-Jan-24 16:30N 55°59' W 003°10'0 0.0
2018-Jan-24 16:00N 55°59' W 003°10'0 0.0
2018-Jan-24 15:29N 55°59' W 003°10'0 0.0
2018-Jan-24 14:59N 55°59' W 003°10'0 0.0
2018-Jan-24 14:29N 55°59' W 003°10'0 0.0
2018-Jan-24 13:58N 55°59' W 003°10'0 0.0
2018-Jan-24 13:28N 55°59' W 003°10'0 0.0
2018-Jan-24 12:58N 55°59' W 003°10'0 0.0
2018-Jan-24 12:30N 55°59' W 003°10'0 0.0
2018-Jan-24 12:00N 55°59' W 003°10'0 0.0
2018-Jan-24 11:30N 55°59' W 003°10'0 0.0
2018-Jan-24 11:00N 55°59' W 003°10'0 0.0
2018-Jan-24 10:29N 55°59' W 003°10'0 0.0
2018-Jan-24 09:59N 55°59' W 003°10'0 0.0
2018-Jan-24 09:29N 55°59' W 003°10'0 0.0
2018-Jan-24 08:58N 55°59' W 003°10'0 0.0
2018-Jan-24 08:28N 55°59' W 003°10'0 0.0
2018-Jan-24 07:58N 55°59' W 003°10'0 0.0
2018-Jan-24 07:30N 55°59' W 003°10'0 0.0
2018-Jan-24 07:00N 55°59' W 003°10'0 0.0
2018-Jan-24 06:30N 55°59' W 003°10'0 0.0
2018-Jan-24 06:00N 55°59' W 003°10'0 0.0
2018-Jan-24 05:29N 55°59' W 003°10'0 0.0
2018-Jan-24 04:59N 55°59' W 003°10'0 0.0
2018-Jan-24 04:29N 55°59' W 003°10'0 0.0
2018-Jan-24 03:58N 55°59' W 003°10'0 0.0
2018-Jan-24 03:28N 55°59' W 003°10'0 0.0
2018-Jan-24 02:58N 55°59' W 003°10'0 0.0
2018-Jan-24 02:30N 55°59' W 003°10'0 0.0
2018-Jan-24 02:00N 55°59' W 003°10'0 0.0
2018-Jan-24 01:30N 55°59' W 003°10'0 0.0
2018-Jan-24 01:00N 55°59' W 003°10'0 0.0
2018-Jan-24 00:29N 55°59' W 003°10'0 0.0
2018-Jan-23 23:59N 55°59' W 003°10'0 0.0
2018-Jan-23 23:29N 55°59' W 003°10'0 0.0
2018-Jan-23 22:58N 55°59' W 003°10'0 0.0
2018-Jan-23 22:28N 55°59' W 003°10'0 0.0
2018-Jan-23 21:58N 55°59' W 003°10'0 0.0
2018-Jan-23 21:31N 55°59' W 003°10'0 0.0
2018-Jan-23 20:59N 55°59' W 003°10'0 0.0
2018-Jan-23 20:29N 55°59' W 003°10'0 0.0
2018-Jan-23 19:59N 55°59' W 003°10'0 0.0
2018-Jan-23 19:28N 55°59' W 003°10'0 0.0
2018-Jan-23 18:58N 55°59' W 003°10'0 0.0
2018-Jan-23 18:28N 55°59' W 003°10'0 0.0
2018-Jan-23 18:00N 55°59' W 003°10'0 0.0
2018-Jan-23 17:30N 55°59' W 003°10'0 0.0
2018-Jan-23 17:00N 55°59' W 003°10'0 0.0
2018-Jan-23 16:29N 55°59' W 003°10'0 0.0
2018-Jan-23 15:59N 55°59' W 003°10'0 0.0
2018-Jan-23 15:29N 55°59' W 003°10'0 0.0
2018-Jan-23 14:59N 55°59' W 003°10'0 0.0
2018-Jan-23 14:28N 55°59' W 003°10'0 0.0
2018-Jan-23 13:58N 55°59' W 003°10'0 0.0
2018-Jan-23 13:28N 55°59' W 003°10'0 0.0
2018-Jan-23 13:00N 55°59' W 003°10'0 0.0
2018-Jan-23 12:30N 55°59' W 003°10'0 0.0
2018-Jan-23 12:00N 55°59' W 003°10'0 0.0
2018-Jan-23 11:30N 55°59' W 003°10'0 0.0
2018-Jan-23 10:59N 55°59' W 003°10'0 0.0
2018-Jan-23 10:29N 55°59' W 003°10'0 0.0
2018-Jan-23 09:59N 55°59' W 003°10'0 0.0
2018-Jan-23 09:28N 55°59' W 003°10'0 0.0
2018-Jan-23 08:58N 55°59' W 003°10'0 0.0
2018-Jan-23 08:28N 55°59' W 003°10'0 0.0
2018-Jan-23 08:00N 55°59' W 003°10'0 0.0
2018-Jan-23 07:30N 55°59' W 003°10'0 0.0
2018-Jan-23 07:00N 55°59' W 003°10'0 0.0
2018-Jan-23 06:30N 55°59' W 003°10'0 0.0
2018-Jan-23 05:59N 55°59' W 003°10'0 0.0
2018-Jan-23 05:29N 55°59' W 003°10'0 0.0
2018-Jan-23 04:59N 55°59' W 003°10'0 0.0
2018-Jan-23 04:28N 55°59' W 003°10'0 0.0
2018-Jan-23 03:58N 55°59' W 003°10'0 0.0
2018-Jan-23 03:28N 55°59' W 003°10'0 0.0
2018-Jan-23 03:00N 55°59' W 003°10'0 0.0
2018-Jan-23 02:29N 55°59' W 003°10'0 0.0
2018-Jan-23 01:58N 55°59' W 003°10'0 0.0
2018-Jan-23 01:28N 55°59' W 003°10'0 0.0
2018-Jan-23 00:58N 55°59' W 003°10'0 0.0
2018-Jan-23 00:30N 55°59' W 003°10'0 0.0
2018-Jan-23 00:00N 55°59' W 003°10'0 0.0
2018-Jan-22 23:30N 55°59' W 003°10'0 0.0
2018-Jan-22 23:00N 55°59' W 003°10'0 0.0
2018-Jan-22 22:29N 55°59' W 003°10'0 0.0
2018-Jan-22 21:59N 55°59' W 003°10'0 0.0
2018-Jan-22 21:29N 55°59' W 003°10'0 0.0
2018-Jan-22 20:59N 55°59' W 003°10'0 0.0
2018-Jan-22 20:28N 55°59' W 003°10'0 0.0
2018-Jan-22 19:58N 55°59' W 003°10'0 0.0
2018-Jan-22 19:25N 55°59' W 003°10'0 0.0
2018-Jan-22 18:58N 55°59' W 003°10'0 0.0
2018-Jan-22 18:30N 55°59' W 003°10'0 0.0
2018-Jan-22 18:00N 55°59' W 003°10'0 0.0
2018-Jan-22 17:30N 55°59' W 003°10'0 0.0
2018-Jan-22 16:59N 55°59' W 003°10'0 0.0
2018-Jan-22 16:29N 55°59' W 003°10'0 0.0
2018-Jan-22 15:59N 55°59' W 003°10'0 0.0
2018-Jan-22 15:29N 55°59' W 003°10'0 0.0
2018-Jan-22 14:58N 55°59' W 003°10'0 0.0
2018-Jan-22 14:28N 55°59' W 003°10'0 0.0
2018-Jan-22 13:58N 55°59' W 003°10'0 0.0
2018-Jan-22 13:30N 55°59' W 003°10'0 0.0
2018-Jan-22 13:00N 55°59' W 003°10'0 0.0
2018-Jan-22 12:28N 55°59' W 003°10'0 0.0
2018-Jan-22 12:00N 55°59' W 003°10'0 0.0
2018-Jan-22 11:30N 55°59' W 003°10'0 0.0
2018-Jan-22 11:00N 55°59' W 003°10'0 0.0
2018-Jan-22 10:29N 55°59' W 003°10'0 0.0
2018-Jan-22 09:59N 55°59' W 003°10'0 0.0
2018-Jan-22 09:29N 55°59' W 003°10'0 0.0
2018-Jan-22 08:59N 55°59' W 003°10'0 0.0
2018-Jan-22 08:28N 55°59' W 003°10'0 0.0
2018-Jan-22 07:58N 55°59' W 003°10'0 0.0
2018-Jan-22 07:28N 55°59' W 003°10'0 0.0
2018-Jan-22 07:00N 55°59' W 003°10'0 0.0
2018-Jan-22 06:30N 55°59' W 003°10'0 0.0
2018-Jan-22 06:00N 55°59' W 003°10'0 0.0
2018-Jan-22 05:29N 55°59' W 003°10'0 0.0
2018-Jan-22 04:59N 55°59' W 003°10'0 0.0
2018-Jan-22 04:29N 55°59' W 003°10'0 0.0
2018-Jan-22 03:59N 55°59' W 003°10'0 0.0
2018-Jan-22 03:28N 55°59' W 003°10'0 0.0
2018-Jan-22 02:58N 55°59' W 003°10'0 0.0
2018-Jan-22 02:28N 55°59' W 003°10'0 0.0
2018-Jan-22 01:58N 55°59' W 003°10'0 0.0
2018-Jan-22 01:29N 55°59' W 003°10'0 0.0
2018-Jan-22 00:58N 55°59' W 003°10'0 0.0
2018-Jan-22 00:28N 55°59' W 003°10'0 0.1
2018-Jan-21 23:58N 55°59' W 003°10'0 0.1
2018-Jan-21 23:28N 55°59' W 003°10'0 0.0
2018-Jan-21 23:00N 55°59' W 003°10'0 0.0
2018-Jan-21 22:30N 55°59' W 003°10'0 0.0
2018-Jan-21 22:00N 55°59' W 003°10'0 0.0
2018-Jan-21 21:29N 55°59' W 003°10'0 0.0
2018-Jan-21 20:59N 55°59' W 003°10'0 0.0
2018-Jan-21 20:29N 55°59' W 003°10'0 0.0
2018-Jan-21 19:58N 55°59' W 003°10'0 0.0
2018-Jan-21 19:28N 55°59' W 003°10'0 0.0
2018-Jan-21 18:58N 55°59' W 003°10'0 0.0
2018-Jan-21 18:28N 55°59' W 003°10'0 0.0
2018-Jan-21 18:00N 55°59' W 003°10'0 0.0
2018-Jan-21 17:30N 55°59' W 003°10'0 0.0
2018-Jan-21 17:00N 55°59' W 003°10'0 0.0
2018-Jan-21 16:29N 55°59' W 003°10'0 0.0
2018-Jan-21 15:59N 55°59' W 003°10'0 0.0
2018-Jan-21 15:29N 55°59' W 003°10'0 0.0
2018-Jan-21 14:58N 55°59' W 003°10'0 0.0
2018-Jan-21 14:28N 55°59' W 003°10'0 0.0
2018-Jan-21 13:58N 55°59' W 003°10'0 0.0
2018-Jan-21 13:28N 55°59' W 003°10'0 0.0
2018-Jan-21 13:00N 55°59' W 003°10'0 0.0
2018-Jan-21 12:30N 55°59' W 003°10'0 0.0
2018-Jan-21 12:00N 55°59' W 003°10'0 0.0
2018-Jan-21 11:29N 55°59' W 003°10'0 0.0
2018-Jan-21 10:59N 55°59' W 003°10'0 0.0
2018-Jan-21 10:29N 55°59' W 003°10'0 0.0
2018-Jan-21 09:59N 55°59' W 003°10'0 0.0
2018-Jan-21 09:28N 55°59' W 003°10'0 0.0
2018-Jan-21 08:58N 55°59' W 003°10'0 0.0
2018-Jan-21 08:28N 55°59' W 003°10'0 0.0
2018-Jan-21 08:00N 55°59' W 003°10'0 0.0
2018-Jan-21 07:30N 55°59' W 003°10'0 0.0
2018-Jan-21 06:59N 55°59' W 003°10'0 0.0
2018-Jan-21 06:29N 55°59' W 003°10'0 0.0
2018-Jan-21 05:59N 55°59' W 003°10'0 0.0
2018-Jan-21 05:28N 55°59' W 003°10'0 0.0
2018-Jan-21 04:58N 55°59' W 003°10'0 0.0
2018-Jan-21 04:28N 55°59' W 003°10'0 0.0
2018-Jan-21 04:00N 55°59' W 003°10'0 0.0
2018-Jan-21 03:30N 55°59' W 003°10'0 0.4
2018-Jan-21 03:00N 55°59' W 003°10'0 0.4
2018-Jan-21 02:28N 55°59' W 003°10'0 0.0
2018-Jan-21 02:00N 55°59' W 003°10'0 0.0
2018-Jan-21 01:30N 55°59' W 003°10'0 0.0
2018-Jan-21 01:00N 55°59' W 003°10'0 0.0
2018-Jan-21 00:29N 55°59' W 003°10'0 0.0
2018-Jan-20 23:59N 55°59' W 003°10'0 0.0
2018-Jan-20 23:29N 55°59' W 003°10'0 0.0
2018-Jan-20 22:59N 55°59' W 003°10'0 0.0
2018-Jan-20 22:28N 55°59' W 003°10'0 0.0
2018-Jan-20 21:58N 55°59' W 003°10'0 0.0
2018-Jan-20 21:28N 55°59' W 003°10'0 0.0
2018-Jan-20 21:00N 55°59' W 003°10'0 0.0
2018-Jan-20 20:30N 55°59' W 003°10'0 0.0
2018-Jan-20 20:00N 55°59' W 003°10'0 0.0
2018-Jan-20 19:29N 55°59' W 003°10'0 0.0
2018-Jan-20 18:59N 55°59' W 003°10'0 0.0
2018-Jan-20 18:29N 55°59' W 003°10'0 0.0
2018-Jan-20 17:59N 55°59' W 003°10'0 0.0
2018-Jan-20 17:28N 55°59' W 003°10'0 0.0
2018-Jan-20 16:58N 55°59' W 003°10'0 0.0
2018-Jan-20 16:28N 55°59' W 003°10'0 0.0
2018-Jan-20 16:00N 55°59' W 003°10'0 0.0
2018-Jan-20 15:30N 55°59' W 003°10'0 0.0
2018-Jan-20 15:00N 55°59' W 003°10'0 0.0
2018-Jan-20 14:30N 55°59' W 003°10'0 0.0
2018-Jan-20 13:59N 55°59' W 003°10'0 0.0
2018-Jan-20 13:29N 55°59' W 003°10'0 0.0
2018-Jan-20 12:59N 55°59' W 003°10'0 0.0
2018-Jan-20 12:28N 55°59' W 003°10'0 0.0
2018-Jan-20 11:58N 55°59' W 003°10'0 0.0
2018-Jan-20 11:29N 55°59' W 003°10'0 0.0
2018-Jan-20 11:00N 55°59' W 003°10'0 0.0
2018-Jan-20 10:29N 55°59' W 003°10'0 0.0
2018-Jan-20 09:59N 55°59' W 003°10'0 0.0
2018-Jan-20 09:29N 55°59' W 003°10'0 0.0
2018-Jan-20 08:56N 55°59' W 003°10'0 0.0
2018-Jan-20 08:28N 55°59' W 003°10'0 0.0
2018-Jan-20 07:58N 55°59' W 003°10'0 0.0
2018-Jan-20 07:28N 55°59' W 003°10'0 0.0
2018-Jan-20 07:00N 55°59' W 003°10'0 0.0
2018-Jan-20 06:30N 55°59' W 003°10'0 0.0
2018-Jan-20 06:00N 55°59' W 003°10'0 0.0
2018-Jan-20 05:30N 55°59' W 003°10'0 0.0
2018-Jan-20 04:59N 55°59' W 003°10'0 0.0
2018-Jan-20 04:29N 55°59' W 003°10'0 0.0
2018-Jan-20 03:59N 55°59' W 003°10'0 0.0
2018-Jan-20 03:28N 55°59' W 003°10'0 0.0
2018-Jan-20 02:58N 55°59' W 003°10'0 0.0
2018-Jan-20 02:28N 55°59' W 003°10'0 0.0
2018-Jan-20 02:00N 55°59' W 003°10'0 0.0
2018-Jan-20 01:30N 55°59' W 003°10'0 0.0
2018-Jan-20 01:00N 55°59' W 003°10'0 0.0
2018-Jan-20 00:30N 55°59' W 003°10'0 0.0
2018-Jan-19 23:59N 55°59' W 003°10'0 0.0
2018-Jan-19 23:29N 55°59' W 003°10'0 0.0
2018-Jan-19 22:59N 55°59' W 003°10'0 0.0
2018-Jan-19 22:28N 55°59' W 003°10'0 0.0
2018-Jan-19 21:58N 55°59' W 003°10'0 0.0
2018-Jan-19 21:28N 55°59' W 003°10'  
Track history (hours):
 
Tides and Currents Weather Stations Pressure Air Temp Water Temp Dewpoint Dewpoint Depression Visibility Wind Speed Wind Dir Waves Ship Positions

Ekaterina

Last reported at 2018-Jan-29 21:04 UTC. Time now 2018-Feb-17 21:35 UTC.
Position N 60°26' E 019°02'.
Warning: this ship's position is 19 days out of date.

Length 166 m; draft 6.2 m.

Type: Cargo ship. MMSI: 215776000.

Date/timePositionNaut miles runAvg speedWind from/ knotsBaromVisibWave heightAir tempDewpointWater temp
2018-Jan-29 21:04N 60°26' E 019°02'112.9
2018-Jan-29 21:00N 60°25' E 019°02'713.0
2018-Jan-29 20:30N 60°19' E 019°01'612.7
2018-Jan-29 20:00N 60°13' E 019°04'713.3
2018-Jan-29 19:30N 60°08' E 019°13'713.3
2018-Jan-29 19:00N 60°02' E 019°21'1413.4
2018-Jan-29 17:59N 59°52' E 019°38'22712.0
2018-Jan-28 23:07N 56°21' E 017°00'412.1
2018-Jan-28 22:47N 56°17' E 016°58'312.1
2018-Jan-28 22:30N 56°14' E 016°56'912.0
2018-Jan-28 21:44N 56°05' E 016°50'312.3
2018-Jan-28 21:30N 56°03' E 016°46'613.1
2018-Jan-28 21:00N 56°00' E 016°36'713.1
2018-Jan-28 20:30N 55°57' E 016°26'713.2
2018-Jan-28 20:00N 55°54' E 016°15'713.2
2018-Jan-28 19:30N 55°51' E 016°05'713.1
2018-Jan-28 19:00N 55°47' E 015°55'612.8
2018-Jan-28 18:30N 55°44' E 015°45'612.8
2018-Jan-28 18:00N 55°41' E 015°35'612.9
2018-Jan-28 17:30N 55°38' E 015°25'612.7
2018-Jan-28 17:00N 55°35' E 015°15'612.6
2018-Jan-28 16:30N 55°32' E 015°05'612.7
2018-Jan-28 16:00N 55°29' E 014°56'612.8
2018-Jan-28 15:30N 55°26' E 014°46'612.5
2018-Jan-28 15:00N 55°22' E 014°37'612.3
2018-Jan-28 14:30N 55°17' E 014°30'612.1
2018-Jan-28 14:00N 55°13' E 014°23'612.0
2018-Jan-28 13:29N 55°11' E 014°13'2812.7
2018-Jan-28 11:17N 55°12' E 013°24'412.8
2018-Jan-28 10:59N 55°13' E 013°17'612.8
2018-Jan-28 10:30N 55°13' E 013°07'612.8
2018-Jan-28 10:00N 55°14' E 012°56'712.9
2018-Jan-28 09:30N 55°16' E 012°45'510.9
2018-Jan-28 09:00N 55°20' E 012°38'611.5
2018-Jan-28 08:30N 55°26' E 012°40'510.9
2018-Jan-28 08:01N 55°31' E 012°42'5 9.3
2018-Jan-28 07:31N 55°35' E 012°42'510.0
2018-Jan-28 07:01N 55°40' E 012°41'510.7
2018-Jan-28 06:31N 55°46' E 012°41'510.9
2018-Jan-28 06:01N 55°51' E 012°41'510.8
2018-Jan-28 05:31N 55°57' E 012°39'510.7
2018-Jan-28 05:01N 56°02' E 012°39'510.4
2018-Jan-28 04:30N 56°06' E 012°33'510.3
2018-Jan-28 04:00N 56°09' E 012°26'612.4
2018-Jan-28 03:30N 56°12' E 012°16'57 9.1
2018-Jan-27 21:14N 57°05' E 011°39'2 8.8
2018-Jan-27 21:00N 57°07' E 011°37'5 9.2
2018-Jan-27 20:30N 57°11' E 011°34'5 9.8
2018-Jan-27 20:00N 57°16' E 011°31'510.1
2018-Jan-27 19:30N 57°21' E 011°28'510.3
2018-Jan-27 19:00N 57°26' E 011°26'5 9.9
2018-Jan-27 18:30N 57°29' E 011°20'510.9
2018-Jan-27 18:00N 57°32' E 011°11'611.3
2018-Jan-27 17:30N 57°35' E 011°02'611.4
2018-Jan-27 17:00N 57°37' E 010°52'611.3
2018-Jan-27 16:30N 57°40' E 010°43'4 7.8
2018-Jan-27 16:00N 57°42' E 010°36'0 0.3
2018-Jan-27 15:29N 57°42' E 010°36'0 0.0
2018-Jan-27 14:59N 57°42' E 010°36'0 0.0
2018-Jan-27 14:29N 57°42' E 010°36'0 0.0
2018-Jan-27 13:58N 57°42' E 010°36'0 0.0
2018-Jan-27 13:28N 57°42' E 010°36'0 0.0
2018-Jan-27 12:58N 57°42' E 010°36'0 0.0
2018-Jan-27 12:30N 57°42' E 010°36'0 0.0
2018-Jan-27 12:00N 57°42' E 010°36'0 0.0
2018-Jan-27 11:27N 57°42' E 010°36'0 0.0
2018-Jan-27 10:59N 57°42' E 010°36'0 0.4
2018-Jan-27 10:30N 57°42' E 010°37'3 6.0
2018-Jan-27 10:00N 57°43' E 010°42'4 7.3
2018-Jan-27 09:30N 57°46' E 010°45'510.3
2018-Jan-27 09:00N 57°47' E 010°36'714.0
2018-Jan-27 08:30N 57°45' E 010°23'814.0
2018-Jan-27 07:58N 57°44' E 010°09'40412.7
2018-Jan-26 00:09N 56°13' W 001°52'412.3
2018-Jan-25 23:50N 56°12' W 001°59'412.4
2018-Jan-25 23:31N 56°11' W 002°06'612.6
2018-Jan-25 23:01N 56°10' W 002°17'612.8
2018-Jan-25 22:31N 56°09' W 002°28'713.0
2018-Jan-25 22:00N 56°07' W 002°40'713.2
2018-Jan-25 21:30N 56°06' W 002°51'611.6
2018-Jan-25 21:00N 56°03' W 003°01'5 9.1
2018-Jan-25 20:31N 56°01' W 003°07'2 4.6
2018-Jan-25 20:00N 55°59' W 003°11'0 0.3
2018-Jan-25 19:31N 55°59' W 003°11'0 0.4
2018-Jan-25 19:01N 55°59' W 003°11'0 0.5
2018-Jan-25 18:28N 55°59' W 003°10'0 0.0
2018-Jan-25 18:01N 55°59' W 003°10'0 0.0
2018-Jan-25 17:30N 55°59' W 003°10'0 0.0
2018-Jan-25 17:00N 55°59' W 003°10'0 0.0
2018-Jan-25 16:30N 55°59' W 003°10'0 0.0
2018-Jan-25 15:56N 55°59' W 003°10'0 0.0
2018-Jan-25 15:29N 55°59' W 003°10'0 0.0
2018-Jan-25 15:00N 55°59' W 003°10'0 0.0
2018-Jan-25 14:30N 55°59' W 003°10'0 0.0
2018-Jan-25 13:59N 55°59' W 003°10'0 0.0
2018-Jan-25 13:29N 55°59' W 003°10'0 0.0
2018-Jan-25 12:59N 55°59' W 003°10'0 0.0
2018-Jan-25 12:29N 55°59' W 003°10'0 0.0
2018-Jan-25 11:58N 55°59' W 003°10'0 0.0
2018-Jan-25 11:28N 55°59' W 003°10'0 0.0
2018-Jan-25 10:58N 55°59' W 003°10'0 0.0
2018-Jan-25 10:30N 55°59' W 003°10'0 0.0
2018-Jan-25 10:00N 55°59' W 003°10'0 0.0
2018-Jan-25 09:30N 55°59' W 003°10'0 0.0
2018-Jan-25 08:59N 55°59' W 003°10'0 0.0
2018-Jan-25 08:29N 55°59' W 003°10'0 0.0
2018-Jan-25 07:59N 55°59' W 003°10'0 0.0
2018-Jan-25 07:29N 55°59' W 003°10'0 0.0
2018-Jan-25 06:58N 55°59' W 003°10'0 0.0
2018-Jan-25 06:28N 55°59' W 003°10'0 0.0
2018-Jan-25 05:58N 55°59' W 003°10'0 0.0
2018-Jan-25 05:30N 55°59' W 003°10'0 0.0
2018-Jan-25 05:00N 55°59' W 003°10'0 0.0
2018-Jan-25 04:30N 55°59' W 003°10'0 0.0
2018-Jan-25 03:59N 55°59' W 003°10'0 0.0
2018-Jan-25 03:29N 55°59' W 003°10'0 0.0
2018-Jan-25 02:59N 55°59' W 003°10'0 0.0
2018-Jan-25 02:28N 55°59' W 003°10'0 0.0
2018-Jan-25 01:58N 55°59' W 003°10'0 0.0
2018-Jan-25 01:30N 55°59' W 003°10'0 0.0
2018-Jan-25 01:00N 55°59' W 003°10'0 0.0
2018-Jan-25 00:29N 55°59' W 003°10'0 0.0
2018-Jan-24 23:59N 55°59' W 003°10'0 0.0
2018-Jan-24 23:29N 55°59' W 003°10'0 0.0
2018-Jan-24 22:59N 55°59' W 003°10'0 0.0
2018-Jan-24 22:28N 55°59' W 003°10'0 0.0
2018-Jan-24 21:58N 55°59' W 003°10'0 0.0
2018-Jan-24 21:28N 55°59' W 003°10'0 0.0
2018-Jan-24 21:00N 55°59' W 003°10'0 0.0
2018-Jan-24 20:30N 55°59' W 003°10'0 0.0
2018-Jan-24 20:00N 55°59' W 003°10'0 0.0
2018-Jan-24 19:29N 55°59' W 003°10'0 0.0
2018-Jan-24 18:58N 55°59' W 003°10'0 0.0
2018-Jan-24 18:28N 55°59' W 003°10'0 0.0
2018-Jan-24 17:58N 55°59' W 003°10'0 0.1
2018-Jan-24 17:30N 55°59' W 003°10'0 0.1
2018-Jan-24 17:00N 55°59' W 003°10'0 0.0
2018-Jan-24 16:30N 55°59' W 003°10'0 0.0
2018-Jan-24 16:00N 55°59' W 003°10'0 0.0
2018-Jan-24 15:29N 55°59' W 003°10'0 0.0
2018-Jan-24 14:59N 55°59' W 003°10'0 0.0
2018-Jan-24 14:29N 55°59' W 003°10'0 0.0
2018-Jan-24 13:58N 55°59' W 003°10'0 0.0
2018-Jan-24 13:28N 55°59' W 003°10'0 0.0
2018-Jan-24 12:58N 55°59' W 003°10'0 0.0
2018-Jan-24 12:30N 55°59' W 003°10'0 0.0
2018-Jan-24 12:00N 55°59' W 003°10'0 0.0
2018-Jan-24 11:30N 55°59' W 003°10'0 0.0
2018-Jan-24 11:00N 55°59' W 003°10'0 0.0
2018-Jan-24 10:29N 55°59' W 003°10'0 0.0
2018-Jan-24 09:59N 55°59' W 003°10'0 0.0
2018-Jan-24 09:29N 55°59' W 003°10'0 0.0
2018-Jan-24 08:58N 55°59' W 003°10'0 0.0
2018-Jan-24 08:28N 55°59' W 003°10'0 0.0
2018-Jan-24 07:58N 55°59' W 003°10'0 0.0
2018-Jan-24 07:30N 55°59' W 003°10'0 0.0
2018-Jan-24 07:00N 55°59' W 003°10'0 0.0
2018-Jan-24 06:30N 55°59' W 003°10'0 0.0
2018-Jan-24 06:00N 55°59' W 003°10'0 0.0
2018-Jan-24 05:29N 55°59' W 003°10'0 0.0
2018-Jan-24 04:59N 55°59' W 003°10'0 0.0
2018-Jan-24 04:29N 55°59' W 003°10'0 0.0
2018-Jan-24 03:58N 55°59' W 003°10'0 0.0
2018-Jan-24 03:28N 55°59' W 003°10'0 0.0
2018-Jan-24 02:58N 55°59' W 003°10'0 0.0
2018-Jan-24 02:30N 55°59' W 003°10'0 0.0
2018-Jan-24 02:00N 55°59' W 003°10'0 0.0
2018-Jan-24 01:30N 55°59' W 003°10'0 0.0
2018-Jan-24 01:00N 55°59' W 003°10'0 0.0
2018-Jan-24 00:29N 55°59' W 003°10'0 0.0
2018-Jan-23 23:59N 55°59' W 003°10'0 0.0
2018-Jan-23 23:29N 55°59' W 003°10'0 0.0
2018-Jan-23 22:58N 55°59' W 003°10'0 0.0
2018-Jan-23 22:28N 55°59' W 003°10'0 0.0
2018-Jan-23 21:58N 55°59' W 003°10'0 0.0
2018-Jan-23 21:31N 55°59' W 003°10'0 0.0
2018-Jan-23 20:59N 55°59' W 003°10'0 0.0
2018-Jan-23 20:29N 55°59' W 003°10'0 0.0
2018-Jan-23 19:59N 55°59' W 003°10'0 0.0
2018-Jan-23 19:28N 55°59' W 003°10'0 0.0
2018-Jan-23 18:58N 55°59' W 003°10'0 0.0
2018-Jan-23 18:28N 55°59' W 003°10'0 0.0
2018-Jan-23 18:00N 55°59' W 003°10'0 0.0
2018-Jan-23 17:30N 55°59' W 003°10'0 0.0
2018-Jan-23 17:00N 55°59' W 003°10'0 0.0
2018-Jan-23 16:29N 55°59' W 003°10'0 0.0
2018-Jan-23 15:59N 55°59' W 003°10'0 0.0
2018-Jan-23 15:29N 55°59' W 003°10'0 0.0
2018-Jan-23 14:59N 55°59' W 003°10'0 0.0
2018-Jan-23 14:28N 55°59' W 003°10'0 0.0
2018-Jan-23 13:58N 55°59' W 003°10'0 0.0
2018-Jan-23 13:28N 55°59' W 003°10'0 0.0
2018-Jan-23 13:00N 55°59' W 003°10'0 0.0
2018-Jan-23 12:30N 55°59' W 003°10'0 0.0
2018-Jan-23 12:00N 55°59' W 003°10'0 0.0
2018-Jan-23 11:30N 55°59' W 003°10'0 0.0
2018-Jan-23 10:59N 55°59' W 003°10'0 0.0
2018-Jan-23 10:29N 55°59' W 003°10'0 0.0
2018-Jan-23 09:59N 55°59' W 003°10'0 0.0
2018-Jan-23 09:28N 55°59' W 003°10'0 0.0
2018-Jan-23 08:58N 55°59' W 003°10'0 0.0
2018-Jan-23 08:28N 55°59' W 003°10'0 0.0
2018-Jan-23 08:00N 55°59' W 003°10'0 0.0
2018-Jan-23 07:30N 55°59' W 003°10'0 0.0
2018-Jan-23 07:00N 55°59' W 003°10'0 0.0
2018-Jan-23 06:30N 55°59' W 003°10'0 0.0
2018-Jan-23 05:59N 55°59' W 003°10'0 0.0
2018-Jan-23 05:29N 55°59' W 003°10'0 0.0
2018-Jan-23 04:59N 55°59' W 003°10'0 0.0
2018-Jan-23 04:28N 55°59' W 003°10'0 0.0
2018-Jan-23 03:58N 55°59' W 003°10'0 0.0
2018-Jan-23 03:28N 55°59' W 003°10'0 0.0
2018-Jan-23 03:00N 55°59' W 003°10'0 0.0
2018-Jan-23 02:29N 55°59' W 003°10'0 0.0
2018-Jan-23 01:58N 55°59' W 003°10'0 0.0
2018-Jan-23 01:28N 55°59' W 003°10'0 0.0
2018-Jan-23 00:58N 55°59' W 003°10'0 0.0
2018-Jan-23 00:30N 55°59' W 003°10'0 0.0
2018-Jan-23 00:00N 55°59' W 003°10'0 0.0
2018-Jan-22 23:30N 55°59' W 003°10'0 0.0
2018-Jan-22 23:00N 55°59' W 003°10'0 0.0
2018-Jan-22 22:29N 55°59' W 003°10'0 0.0
2018-Jan-22 21:59N 55°59' W 003°10'0 0.0
2018-Jan-22 21:29N 55°59' W 003°10'0 0.0
2018-Jan-22 20:59N 55°59' W 003°10'0 0.0
2018-Jan-22 20:28N 55°59' W 003°10'0 0.0
2018-Jan-22 19:58N 55°59' W 003°10'0 0.0
2018-Jan-22 19:25N 55°59' W 003°10'0 0.0
2018-Jan-22 18:58N 55°59' W 003°10'0 0.0
2018-Jan-22 18:30N 55°59' W 003°10'0 0.0
2018-Jan-22 18:00N 55°59' W 003°10'0 0.0
2018-Jan-22 17:30N 55°59' W 003°10'0 0.0
2018-Jan-22 16:59N 55°59' W 003°10'0 0.0
2018-Jan-22 16:29N 55°59' W 003°10'0 0.0
2018-Jan-22 15:59N 55°59' W 003°10'0 0.0
2018-Jan-22 15:29N 55°59' W 003°10'0 0.0
2018-Jan-22 14:58N 55°59' W 003°10'0 0.0
2018-Jan-22 14:28N 55°59' W 003°10'0 0.0
2018-Jan-22 13:58N 55°59' W 003°10'0 0.0
2018-Jan-22 13:30N 55°59' W 003°10'0 0.0
2018-Jan-22 13:00N 55°59' W 003°10'0 0.0
2018-Jan-22 12:28N 55°59' W 003°10'0 0.0
2018-Jan-22 12:00N 55°59' W 003°10'0 0.0
2018-Jan-22 11:30N 55°59' W 003°10'0 0.0
2018-Jan-22 11:00N 55°59' W 003°10'0 0.0
2018-Jan-22 10:29N 55°59' W 003°10'0 0.0
2018-Jan-22 09:59N 55°59' W 003°10'0 0.0
2018-Jan-22 09:29N 55°59' W 003°10'0 0.0
2018-Jan-22 08:59N 55°59' W 003°10'0 0.0
2018-Jan-22 08:28N 55°59' W 003°10'0 0.0
2018-Jan-22 07:58N 55°59' W 003°10'0 0.0
2018-Jan-22 07:28N 55°59' W 003°10'0 0.0
2018-Jan-22 07:00N 55°59' W 003°10'0 0.0
2018-Jan-22 06:30N 55°59' W 003°10'0 0.0
2018-Jan-22 06:00N 55°59' W 003°10'0 0.0
2018-Jan-22 05:29N 55°59' W 003°10'0 0.0
2018-Jan-22 04:59N 55°59' W 003°10'0 0.0
2018-Jan-22 04:29N 55°59' W 003°10'0 0.0
2018-Jan-22 03:59N 55°59' W 003°10'0 0.0
2018-Jan-22 03:28N 55°59' W 003°10'0 0.0
2018-Jan-22 02:58N 55°59' W 003°10'0 0.0
2018-Jan-22 02:28N 55°59' W 003°10'0 0.0
2018-Jan-22 01:58N 55°59' W 003°10'0 0.0
2018-Jan-22 01:29N 55°59' W 003°10'0 0.0
2018-Jan-22 00:58N 55°59' W 003°10'0 0.0
2018-Jan-22 00:28N 55°59' W 003°10'0 0.1
2018-Jan-21 23:58N 55°59' W 003°10'0 0.1
2018-Jan-21 23:28N 55°59' W 003°10'0 0.0
2018-Jan-21 23:00N 55°59' W 003°10'0 0.0
2018-Jan-21 22:30N 55°59' W 003°10'0 0.0
2018-Jan-21 22:00N 55°59' W 003°10'0 0.0
2018-Jan-21 21:29N 55°59' W 003°10'0 0.0
2018-Jan-21 20:59N 55°59' W 003°10'0 0.0
2018-Jan-21 20:29N 55°59' W 003°10'0 0.0
2018-Jan-21 19:58N 55°59' W 003°10'0 0.0
2018-Jan-21 19:28N 55°59' W 003°10'0 0.0
2018-Jan-21 18:58N 55°59' W 003°10'0 0.0
2018-Jan-21 18:28N 55°59' W 003°10'0 0.0
2018-Jan-21 18:00N 55°59' W 003°10'0 0.0
2018-Jan-21 17:30N 55°59' W 003°10'0 0.0
2018-Jan-21 17:00N 55°59' W 003°10'0 0.0
2018-Jan-21 16:29N 55°59' W 003°10'0 0.0
2018-Jan-21 15:59N 55°59' W 003°10'0 0.0
2018-Jan-21 15:29N 55°59' W 003°10'0 0.0
2018-Jan-21 14:58N 55°59' W 003°10'0 0.0
2018-Jan-21 14:28N 55°59' W 003°10'0 0.0
2018-Jan-21 13:58N 55°59' W 003°10'0 0.0
2018-Jan-21 13:28N 55°59' W 003°10'0 0.0
2018-Jan-21 13:00N 55°59' W 003°10'0 0.0
2018-Jan-21 12:30N 55°59' W 003°10'0 0.0
2018-Jan-21 12:00N 55°59' W 003°10'0 0.0
2018-Jan-21 11:29N 55°59' W 003°10'0 0.0
2018-Jan-21 10:59N 55°59' W 003°10'0 0.0
2018-Jan-21 10:29N 55°59' W 003°10'0 0.0
2018-Jan-21 09:59N 55°59' W 003°10'0 0.0
2018-Jan-21 09:28N 55°59' W 003°10'0 0.0
2018-Jan-21 08:58N 55°59' W 003°10'0 0.0
2018-Jan-21 08:28N 55°59' W 003°10'0 0.0
2018-Jan-21 08:00N 55°59' W 003°10'0 0.0
2018-Jan-21 07:30N 55°59' W 003°10'0 0.0
2018-Jan-21 06:59N 55°59' W 003°10'0 0.0
2018-Jan-21 06:29N 55°59' W 003°10'0 0.0
2018-Jan-21 05:59N 55°59' W 003°10'0 0.0
2018-Jan-21 05:28N 55°59' W 003°10'0 0.0
2018-Jan-21 04:58N 55°59' W 003°10'0 0.0
2018-Jan-21 04:28N 55°59' W 003°10'0 0.0
2018-Jan-21 04:00N 55°59' W 003°10'0 0.0
2018-Jan-21 03:30N 55°59' W 003°10'0 0.4
2018-Jan-21 03:00N 55°59' W 003°10'0 0.4
2018-Jan-21 02:28N 55°59' W 003°10'0 0.0
2018-Jan-21 02:00N 55°59' W 003°10'0 0.0
2018-Jan-21 01:30N 55°59' W 003°10'0 0.0
2018-Jan-21 01:00N 55°59' W 003°10'0 0.0
2018-Jan-21 00:29N 55°59' W 003°10'0 0.0
2018-Jan-20 23:59N 55°59' W 003°10'0 0.0
2018-Jan-20 23:29N 55°59' W 003°10'0 0.0
2018-Jan-20 22:59N 55°59' W 003°10'0 0.0
2018-Jan-20 22:28N 55°59' W 003°10'0 0.0
2018-Jan-20 21:58N 55°59' W 003°10'0 0.0
2018-Jan-20 21:28N 55°59' W 003°10'0 0.0
2018-Jan-20 21:00N 55°59' W 003°10'0 0.0
2018-Jan-20 20:30N 55°59' W 003°10'0 0.0
2018-Jan-20 20:00N 55°59' W 003°10'0 0.0
2018-Jan-20 19:29N 55°59' W 003°10'0 0.0
2018-Jan-20 18:59N 55°59' W 003°10'0 0.0
2018-Jan-20 18:29N 55°59' W 003°10'0 0.0
2018-Jan-20 17:59N 55°59' W 003°10'0 0.0
2018-Jan-20 17:28N 55°59' W 003°10'0 0.0
2018-Jan-20 16:58N 55°59' W 003°10'0 0.0
2018-Jan-20 16:28N 55°59' W 003°10'0 0.0
2018-Jan-20 16:00N 55°59' W 003°10'0 0.0
2018-Jan-20 15:30N 55°59' W 003°10'0 0.0
2018-Jan-20 15:00N 55°59' W 003°10'0 0.0
2018-Jan-20 14:30N 55°59' W 003°10'0 0.0
2018-Jan-20 13:59N 55°59' W 003°10'0 0.0
2018-Jan-20 13:29N 55°59' W 003°10'0 0.0
2018-Jan-20 12:59N 55°59' W 003°10'0 0.0
2018-Jan-20 12:28N 55°59' W 003°10'0 0.0
2018-Jan-20 11:58N 55°59' W 003°10'0 0.0
2018-Jan-20 11:29N 55°59' W 003°10'0 0.0
2018-Jan-20 11:00N 55°59' W 003°10'0 0.0
2018-Jan-20 10:29N 55°59' W 003°10'0 0.0
2018-Jan-20 09:59N 55°59' W 003°10'0 0.0
2018-Jan-20 09:29N 55°59' W 003°10'0 0.0
2018-Jan-20 08:56N 55°59' W 003°10'0 0.0
2018-Jan-20 08:28N 55°59' W 003°10'0 0.0
2018-Jan-20 07:58N 55°59' W 003°10'0 0.0
2018-Jan-20 07:28N 55°59' W 003°10'0 0.0
2018-Jan-20 07:00N 55°59' W 003°10'0 0.0
2018-Jan-20 06:30N 55°59' W 003°10'0 0.0
2018-Jan-20 06:00N 55°59' W 003°10'0 0.0
2018-Jan-20 05:30N 55°59' W 003°10'0 0.0
2018-Jan-20 04:59N 55°59' W 003°10'0 0.0
2018-Jan-20 04:29N 55°59' W 003°10'0 0.0
2018-Jan-20 03:59N 55°59' W 003°10'0 0.0
2018-Jan-20 03:28N 55°59' W 003°10'0 0.0
2018-Jan-20 02:58N 55°59' W 003°10'0 0.0
2018-Jan-20 02:28N 55°59' W 003°10'0 0.0
2018-Jan-20 02:00N 55°59' W 003°10'0 0.0
2018-Jan-20 01:30N 55°59' W 003°10'0 0.0
2018-Jan-20 01:00N 55°59' W 003°10'0 0.0
2018-Jan-20 00:30N 55°59' W 003°10'0 0.0
2018-Jan-19 23:59N 55°59' W 003°10'0 0.0
2018-Jan-19 23:29N 55°59' W 003°10'0 0.0
2018-Jan-19 22:59N 55°59' W 003°10'0 0.0
2018-Jan-19 22:28N 55°59' W 003°10'0 0.0
2018-Jan-19 21:58N 55°59' W 003°10'0 0.0
2018-Jan-19 21:28N 55°59' W 003°10'  

Dump ship's entire track history